createdAt,value
2022-08-26T00:03:35.656Z,8.67
2022-08-26T00:07:36.731Z,9.73
2022-08-26T00:11:38.310Z,9.57
2022-08-26T00:15:40.079Z,8.87
2022-08-26T00:19:40.991Z,8.93
2022-08-26T00:23:43.118Z,9.73
2022-08-26T00:27:44.719Z,8.17
2022-08-26T00:31:45.828Z,9.10
2022-08-26T00:35:47.358Z,8.70
2022-08-26T00:39:48.455Z,9.03
2022-08-26T00:43:50.766Z,9.03
2022-08-26T00:47:58.794Z,9.93
2022-08-26T00:52:03.617Z,9.20
2022-08-26T00:56:10.402Z,9.63
2022-08-26T01:04:38.617Z,12.83
2022-08-26T01:08:40.616Z,10.53
2022-08-26T01:12:51.653Z,10.80
2022-08-26T01:16:52.652Z,9.93
2022-08-26T01:21:18.423Z,10.23
2022-08-26T01:25:20.875Z,8.77
2022-08-26T01:29:23.558Z,9.00
2022-08-26T01:33:45.184Z,9.03
2022-08-26T01:37:49.287Z,10.87
2022-08-26T01:41:54.013Z,10.43
2022-08-26T01:45:56.311Z,10.43
2022-08-26T01:50:01.038Z,10.57
2022-08-26T01:54:06.711Z,9.57
2022-08-26T01:58:22.052Z,10.27
2022-08-26T02:02:23.453Z,11.03
2022-08-26T02:06:25.889Z,9.93
2022-08-26T02:10:27.519Z,10.17
2022-08-26T02:14:31.937Z,9.10
2022-08-26T02:18:36.180Z,9.77
2022-08-26T02:22:37.829Z,9.73
2022-08-26T02:26:40.039Z,8.27
2022-08-26T02:30:41.295Z,10.07
2022-08-26T02:34:42.407Z,11.40
2022-08-26T02:38:43.318Z,10.77
2022-08-26T02:42:44.486Z,10.43
2022-08-26T02:46:47.070Z,14.37
2022-08-26T02:50:48.704Z,9.73
2022-08-26T02:54:49.749Z,9.50
2022-08-26T02:58:51.092Z,11.97
2022-08-26T03:02:54.194Z,9.43
2022-08-26T03:06:55.934Z,11.30
2022-08-26T03:10:56.899Z,9.20
2022-08-26T03:14:57.792Z,10.03
2022-08-26T03:19:01.717Z,11.60
2022-08-26T03:23:02.727Z,11.47
2022-08-26T03:27:07.449Z,10.00
2022-08-26T03:31:08.517Z,9.33
2022-08-26T03:35:10.061Z,9.47
2022-08-26T03:39:12.472Z,10.83
2022-08-26T03:43:16.663Z,10.70
2022-08-26T03:47:18.380Z,11.23
2022-08-26T03:51:19.478Z,10.20
2022-08-26T03:55:26.997Z,9.50
2022-08-26T03:59:28.567Z,9.37
2022-08-26T04:03:48.691Z,10.17
2022-08-26T04:07:51.204Z,9.33
2022-08-26T04:11:52.900Z,10.70
2022-08-26T04:15:53.886Z,10.23
2022-08-26T04:19:54.978Z,10.97
2022-08-26T04:23:56.000Z,12.13
2022-08-26T04:27:58.805Z,11.10
2022-08-26T04:31:59.734Z,11.63
2022-08-26T04:36:04.840Z,11.27
2022-08-26T04:40:08.733Z,13.43
2022-08-26T04:44:10.301Z,11.17
2022-08-26T04:48:11.318Z,13.43
2022-08-26T04:52:12.348Z,13.20
2022-08-26T04:56:13.737Z,13.07
2022-08-26T05:00:14.999Z,14.10
2022-08-26T05:04:18.910Z,12.53
2022-08-26T05:08:22.053Z,11.80
2022-08-26T05:12:23.868Z,10.47
2022-08-26T05:16:24.922Z,12.43
2022-08-26T05:20:26.286Z,10.53
2022-08-26T05:24:28.114Z,11.17
2022-08-26T05:28:29.943Z,15.03
2022-08-26T05:32:31.351Z,10.33
2022-08-26T05:36:34.081Z,11.20
2022-08-26T05:40:40.138Z,10.13
2022-08-26T05:44:54.121Z,10.43
2022-08-26T05:48:44.615Z,13.97
2022-08-26T05:52:45.608Z,12.33
2022-08-26T05:56:46.605Z,11.27
2022-08-26T06:00:56.657Z,12.23
2022-08-26T06:04:57.690Z,11.60
2022-08-26T06:09:01.173Z,11.00
2022-08-26T06:13:09.417Z,15.30
2022-08-26T06:17:04.894Z,12.63
2022-08-26T06:21:23.912Z,15.73
2022-08-26T06:25:40.033Z,11.37
2022-08-26T06:29:41.133Z,18.83
2022-08-26T06:33:43.533Z,11.80
2022-08-26T06:37:44.534Z,11.07
2022-08-26T06:41:46.275Z,10.57
2022-08-26T06:45:47.560Z,10.40
2022-08-26T06:49:49.477Z,11.20
2022-08-26T06:53:53.398Z,11.57
2022-08-26T06:57:55.812Z,10.97
2022-08-26T07:01:56.883Z,12.17
2022-08-26T07:06:02.921Z,13.23
2022-08-26T07:10:07.942Z,11.23
2022-08-26T07:14:09.269Z,11.00
2022-08-26T07:18:10.528Z,11.83
2022-08-26T07:22:12.514Z,11.90
2022-08-26T07:26:17.550Z,11.03
2022-08-26T07:30:18.743Z,12.57
2022-08-26T07:34:20.061Z,12.27
2022-08-26T07:38:21.298Z,13.60
2022-08-26T07:42:22.400Z,12.77
2022-08-26T07:46:27.174Z,14.17
2022-08-26T07:50:48.955Z,12.57
2022-08-26T07:54:31.218Z,13.70
2022-08-26T07:58:32.422Z,13.43
2022-08-26T08:02:33.553Z,14.07
2022-08-26T08:06:36.986Z,13.67
2022-08-26T08:10:38.583Z,16.87
2022-08-26T08:14:39.857Z,14.23
2022-08-26T08:18:41.273Z,12.80
2022-08-26T08:22:43.645Z,13.70
2022-08-26T08:26:45.549Z,12.93
2022-08-26T08:30:46.712Z,13.97
2022-08-26T08:34:47.964Z,14.77
2022-08-26T08:38:49.301Z,13.67
2022-08-26T08:43:08.999Z,14.83
2022-08-26T08:47:17.063Z,15.40
2022-08-26T08:51:28.292Z,17.53
2022-08-26T08:55:33.903Z,15.37
2022-08-26T08:59:38.281Z,16.27
2022-08-26T09:03:55.789Z,14.60
2022-08-26T09:08:08.064Z,15.00
2022-08-26T09:16:54.984Z,15.97
2022-08-26T09:20:59.393Z,16.17
2022-08-26T09:25:01.447Z,16.43
2022-08-26T09:29:10.249Z,17.17
2022-08-26T09:33:15.330Z,16.17
2022-08-26T09:37:38.485Z,17.93
2022-08-26T09:41:40.346Z,15.50
2022-08-26T09:45:50.767Z,14.97
2022-08-26T09:50:09.673Z,16.33
2022-08-26T09:54:12.939Z,17.00
2022-08-26T09:58:34.906Z,22.40
2022-08-26T10:02:41.035Z,19.20
2022-08-26T10:06:56.636Z,22.20
2022-08-26T10:11:02.533Z,23.50
2022-08-26T10:15:08.549Z,23.57
2022-08-26T10:19:13.526Z,24.20
2022-08-26T10:23:19.746Z,20.90
2022-08-26T10:27:29.564Z,20.97
2022-08-26T10:31:43.740Z,19.90
2022-08-26T10:35:51.315Z,18.33
2022-08-26T10:39:57.084Z,17.53
2022-08-26T10:44:00.854Z,18.87
2022-08-26T10:48:08.490Z,23.20
2022-08-26T10:52:22.333Z,23.10
2022-08-26T10:56:36.277Z,25.83
2022-08-26T11:00:59.850Z,25.33
2022-08-26T11:05:22.955Z,22.60
2022-08-26T11:09:47.503Z,23.17
2022-08-26T11:14:02.631Z,20.60
2022-08-26T11:18:08.978Z,22.63
2022-08-26T11:22:30.417Z,21.50
2022-08-26T11:26:56.265Z,32.83
2022-08-26T11:30:42.116Z,25.13
2022-08-26T11:34:58.776Z,22.37
2022-08-26T11:39:02.723Z,21.77
2022-08-26T11:43:19.968Z,21.63
2022-08-26T11:47:29.921Z,21.43
2022-08-26T11:51:31.927Z,20.87
2022-08-26T11:55:37.137Z,17.50
2022-08-26T11:59:41.405Z,17.97
2022-08-26T12:03:48.998Z,16.90
2022-08-26T12:07:51.094Z,16.97
2022-08-26T12:12:12.860Z,16.97
2022-08-26T12:16:18.216Z,18.30
2022-08-26T12:20:46.012Z,18.00
2022-08-26T12:24:53.292Z,16.43
2022-08-26T12:29:01.883Z,20.10
2022-08-26T12:33:22.089Z,19.90
2022-08-26T12:37:13.337Z,20.23
2022-08-26T12:41:38.944Z,20.17
2022-08-26T12:45:43.651Z,23.30
2022-08-26T12:49:45.191Z,22.30
2022-08-26T12:53:46.500Z,20.50
2022-08-26T12:57:47.487Z,22.20
2022-08-26T13:01:50.173Z,21.53
2022-08-26T13:05:51.310Z,21.40
2022-08-26T13:09:57.813Z,22.50
2022-08-26T13:14:10.643Z,21.97
2022-08-26T13:18:12.055Z,20.97
2022-08-26T13:22:15.451Z,20.63
2022-08-26T13:26:17.640Z,36.90
2022-08-26T13:30:19.244Z,36.23
2022-08-26T13:34:22.055Z,35.17
2022-08-26T13:38:33.301Z,45.60
2022-08-26T13:42:26.185Z,74.93
2022-08-26T13:46:28.208Z,95.83
2022-08-26T13:50:29.641Z,44.40
2022-08-26T13:54:30.652Z,53.93
2022-08-26T13:58:31.708Z,61.20
2022-08-26T14:02:32.817Z,61.80
2022-08-26T14:06:33.946Z,54.83
2022-08-26T14:10:35.311Z,63.83
2022-08-26T14:14:36.235Z,58.80
2022-08-26T14:18:41.877Z,52.70
2022-08-26T14:22:52.133Z,57.83
2022-08-26T14:26:47.931Z,63.93
2022-08-26T14:30:52.900Z,51.73
2022-08-26T14:34:55.078Z,51.73
2022-08-26T14:39:00.207Z,49.83
2022-08-26T14:43:01.905Z,61.70
2022-08-26T14:47:06.101Z,70.80
2022-08-26T14:51:07.260Z,89.53
2022-08-26T14:55:09.233Z,54.00
2022-08-26T14:59:10.836Z,42.33
2022-08-26T15:07:14.263Z,42.37
2022-08-26T15:11:17.380Z,47.83
2022-08-26T15:15:18.841Z,53.50
2022-08-26T15:19:21.060Z,49.33
2022-08-26T15:23:22.166Z,51.13
2022-08-26T15:27:23.969Z,49.37
2022-08-26T15:31:29.341Z,44.83
2022-08-26T15:35:30.448Z,40.40
2022-08-26T15:39:34.001Z,39.77
2022-08-26T15:43:37.009Z,39.53
2022-08-26T15:47:55.330Z,36.70
2022-08-26T15:51:45.259Z,39.23
2022-08-26T15:55:45.192Z,37.90
2022-08-26T15:59:46.357Z,39.63
2022-08-26T16:03:48.080Z,42.53
2022-08-26T16:07:49.303Z,44.83
2022-08-26T16:11:50.630Z,46.70
2022-08-26T16:15:53.225Z,47.47
2022-08-26T16:19:54.312Z,46.50
2022-08-26T16:23:56.750Z,50.90
2022-08-26T16:27:58.578Z,56.63
2022-08-26T16:32:00.198Z,54.97
2022-08-26T16:36:01.585Z,53.47
2022-08-26T16:40:04.480Z,53.53
2022-08-26T16:44:07.185Z,54.90
2022-08-26T16:48:09.221Z,55.47
2022-08-26T16:52:11.221Z,49.73
2022-08-26T16:56:16.043Z,55.03
2022-08-26T17:00:20.973Z,53.93
2022-08-26T17:04:22.577Z,51.87
2022-08-26T17:08:28.528Z,52.13
2022-08-26T17:12:27.845Z,50.17
2022-08-26T17:16:29.048Z,48.63
2022-08-26T17:20:30.126Z,48.13
2022-08-26T17:24:33.760Z,45.87
2022-08-26T17:28:35.116Z,45.40
2022-08-26T17:32:36.647Z,45.77
2022-08-26T17:36:37.785Z,42.37
2022-08-26T17:40:39.033Z,41.43
2022-08-26T17:44:40.578Z,42.63
2022-08-26T17:48:41.811Z,39.80
2022-08-26T17:52:44.354Z,38.43
2022-08-26T17:56:47.612Z,39.37
2022-08-26T18:00:51.763Z,34.47
2022-08-26T18:04:52.958Z,33.67
2022-08-26T18:08:54.401Z,33.80
2022-08-26T18:12:55.632Z,32.00
2022-08-26T18:16:56.783Z,29.13
2022-08-26T18:21:01.479Z,30.27
2022-08-26T18:25:04.788Z,29.30
2022-08-26T18:29:07.408Z,26.57
2022-08-26T18:33:10.002Z,28.97
2022-08-26T18:41:14.509Z,26.93
2022-08-26T18:45:16.243Z,27.87
2022-08-26T18:49:20.462Z,28.77
2022-08-26T18:53:21.705Z,26.47
2022-08-26T18:57:23.042Z,27.23
2022-08-26T19:01:27.356Z,26.47
2022-08-26T19:05:27.267Z,27.33
2022-08-26T19:09:30.275Z,31.20
2022-08-26T19:13:31.407Z,31.70
2022-08-26T19:17:32.540Z,33.07
2022-08-26T19:21:36.091Z,35.30
2022-08-26T19:25:46.508Z,35.60
2022-08-26T19:29:47.817Z,34.23
2022-08-26T19:33:49.587Z,35.07
2022-08-26T19:37:50.714Z,33.80
2022-08-26T19:41:51.806Z,30.43
2022-08-26T19:45:52.980Z,30.63
2022-08-26T19:49:54.875Z,31.73
2022-08-26T19:53:58.439Z,28.47
2022-08-26T19:57:59.545Z,29.97
2022-08-26T20:02:01.930Z,31.20
2022-08-26T20:06:05.729Z,29.10
2022-08-26T20:10:09.284Z,29.77
2022-08-26T20:14:10.681Z,29.40
2022-08-26T20:18:30.368Z,31.13
2022-08-26T20:22:32.718Z,28.63
2022-08-26T20:26:36.939Z,32.13
2022-08-26T20:30:39.049Z,31.27
2022-08-26T20:34:40.195Z,35.40
2022-08-26T20:38:41.638Z,29.40
2022-08-26T20:42:42.989Z,30.13
2022-08-26T20:46:44.537Z,28.93
2022-08-26T20:50:45.888Z,31.57
2022-08-26T20:54:47.048Z,28.33
2022-08-26T20:58:48.191Z,29.83
2022-08-26T21:02:50.067Z,28.73
2022-08-26T21:06:53.807Z,28.27
2022-08-26T21:10:55.682Z,30.00
2022-08-26T21:14:57.269Z,29.97
2022-08-26T21:18:58.423Z,30.77
2022-08-26T21:23:01.419Z,28.73
2022-08-26T21:27:02.559Z,28.67
2022-08-26T21:31:06.836Z,30.33
2022-08-26T21:35:08.999Z,29.57
2022-08-26T21:39:12.085Z,27.87
2022-08-26T21:43:17.854Z,27.87
2022-08-26T21:47:17.098Z,31.83
2022-08-26T21:51:20.510Z,28.33
2022-08-26T21:55:21.604Z,30.13
2022-08-26T21:59:22.713Z,28.73
2022-08-26T22:03:24.243Z,29.67
2022-08-26T22:07:25.548Z,30.17
2022-08-26T22:11:28.068Z,28.10
2022-08-26T22:15:30.973Z,30.50
2022-08-26T22:19:32.068Z,30.47
2022-08-26T22:23:37.344Z,29.20
2022-08-26T22:27:40.513Z,30.43
2022-08-26T22:31:41.309Z,31.67
2022-08-26T22:35:45.498Z,29.10
2022-08-26T22:39:46.503Z,30.47
2022-08-26T22:43:47.413Z,28.60
2022-08-26T22:47:48.504Z,29.40
2022-08-26T22:51:50.199Z,28.07
2022-08-26T22:55:51.240Z,29.67
2022-08-26T22:59:52.355Z,28.77
2022-08-26T23:03:53.353Z,29.53
2022-08-26T23:07:56.061Z,29.33
2022-08-26T23:11:57.563Z,29.53
2022-08-26T23:16:00.367Z,30.13
2022-08-26T23:20:05.085Z,30.47
2022-08-26T23:24:07.235Z,28.83
2022-08-26T23:28:08.580Z,25.70
2022-08-26T23:32:09.957Z,27.73
2022-08-26T23:36:15.790Z,27.63
2022-08-26T23:40:31.547Z,27.47
2022-08-26T23:44:33.737Z,27.73
2022-08-26T23:48:34.633Z,26.87
2022-08-26T23:52:54.152Z,24.60
2022-08-26T23:56:55.156Z,25.63
